sensor_id;sensor_type;location;lat;lon;timestamp;P1;durP1;ratioP1;P2;durP2;ratioP2
16766;SDS011;8501;49.926;8.404;2023-08-30T00:00:07;8.48;;;7.13;;
16766;SDS011;8501;49.926;8.404;2023-08-30T00:02:35;8.85;;;6.60;;
16766;SDS011;8501;49.926;8.404;2023-08-30T00:05:02;9.15;;;7.00;;
16766;SDS011;8501;49.926;8.404;2023-08-30T00:07:29;7.78;;;6.82;;
16766;SDS011;8501;49.926;8.404;2023-08-30T00:09:55;8.63;;;7.13;;
16766;SDS011;8501;49.926;8.404;2023-08-30T00:12:22;8.65;;;7.35;;
16766;SDS011;8501;49.926;8.404;2023-08-30T00:14:48;8.10;;;7.07;;
16766;SDS011;8501;49.926;8.404;2023-08-30T00:17:13;9.30;;;7.47;;
16766;SDS011;8501;49.926;8.404;2023-08-30T00:19:39;10.80;;;7.55;;
16766;SDS011;8501;49.926;8.404;2023-08-30T00:22:05;7.50;;;6.75;;
16766;SDS011;8501;49.926;8.404;2023-08-30T00:24:32;8.02;;;7.22;;
16766;SDS011;8501;49.926;8.404;2023-08-30T00:26:58;8.35;;;7.05;;
16766;SDS011;8501;49.926;8.404;2023-08-30T00:29:24;7.90;;;7.10;;
16766;SDS011;8501;49.926;8.404;2023-08-30T00:31:49;11.02;;;8.00;;
16766;SDS011;8501;49.926;8.404;2023-08-30T00:34:15;9.48;;;7.03;;
16766;SDS011;8501;49.926;8.404;2023-08-30T00:36:40;10.57;;;7.50;;
16766;SDS011;8501;49.926;8.404;2023-08-30T00:39:06;7.55;;;6.75;;
16766;SDS011;8501;49.926;8.404;2023-08-30T00:41:33;8.82;;;6.85;;
16766;SDS011;8501;49.926;8.404;2023-08-30T00:43:59;9.30;;;7.45;;
16766;SDS011;8501;49.926;8.404;2023-08-30T00:46:25;11.18;;;7.97;;
16766;SDS011;8501;49.926;8.404;2023-08-30T00:48:51;8.60;;;7.40;;
16766;SDS011;8501;49.926;8.404;2023-08-30T00:51:16;8.98;;;7.15;;
16766;SDS011;8501;49.926;8.404;2023-08-30T00:53:42;12.35;;;7.45;;
16766;SDS011;8501;49.926;8.404;2023-08-30T00:56:09;9.15;;;7.78;;
16766;SDS011;8501;49.926;8.404;2023-08-30T00:58:35;9.73;;;7.88;;
16766;SDS011;8501;49.926;8.404;2023-08-30T01:01:01;10.98;;;7.70;;
16766;SDS011;8501;49.926;8.404;2023-08-30T01:03:27;9.10;;;8.20;;
16766;SDS011;8501;49.926;8.404;2023-08-30T01:05:52;9.25;;;7.90;;
16766;SDS011;8501;49.926;8.404;2023-08-30T01:08:18;8.95;;;7.95;;
16766;SDS011;8501;49.926;8.404;2023-08-30T01:13:19;9.98;;;7.90;;
16766;SDS011;8501;49.926;8.404;2023-08-30T01:15:46;8.43;;;7.60;;
16766;SDS011;8501;49.926;8.404;2023-08-30T01:18:13;9.05;;;8.15;;
16766;SDS011;8501;49.926;8.404;2023-08-30T01:20:42;12.07;;;8.45;;
16766;SDS011;8501;49.926;8.404;2023-08-30T01:23:16;9.23;;;8.15;;
16766;SDS011;8501;49.926;8.404;2023-08-30T01:28:36;10.30;;;7.95;;
16766;SDS011;8501;49.926;8.404;2023-08-30T01:31:02;10.15;;;7.85;;
16766;SDS011;8501;49.926;8.404;2023-08-30T01:33:30;11.68;;;7.55;;
16766;SDS011;8501;49.926;8.404;2023-08-30T01:35:57;10.18;;;7.60;;
16766;SDS011;8501;49.926;8.404;2023-08-30T01:38:28;9.27;;;7.70;;
16766;SDS011;8501;49.926;8.404;2023-08-30T01:40:54;8.18;;;7.15;;
16766;SDS011;8501;49.926;8.404;2023-08-30T01:43:22;8.25;;;7.20;;
16766;SDS011;8501;49.926;8.404;2023-08-30T01:45:51;9.65;;;7.65;;
16766;SDS011;8501;49.926;8.404;2023-08-30T01:48:17;8.00;;;7.10;;
16766;SDS011;8501;49.926;8.404;2023-08-30T01:50:44;9.63;;;7.68;;
16766;SDS011;8501;49.926;8.404;2023-08-30T01:53:11;9.10;;;8.00;;
16766;SDS011;8501;49.926;8.404;2023-08-30T01:55:37;10.52;;;8.75;;
16766;SDS011;8501;49.926;8.404;2023-08-30T01:58:05;10.00;;;8.18;;
16766;SDS011;8501;49.926;8.404;2023-08-30T02:00:31;10.70;;;8.45;;
16766;SDS011;8501;49.926;8.404;2023-08-30T02:02:57;9.95;;;8.43;;
16766;SDS011;8501;49.926;8.404;2023-08-30T02:05:22;10.48;;;8.60;;
16766;SDS011;8501;49.926;8.404;2023-08-30T02:07:55;9.80;;;8.23;;
16766;SDS011;8501;49.926;8.404;2023-08-30T02:10:31;9.85;;;8.02;;
16766;SDS011;8501;49.926;8.404;2023-08-30T02:13:00;10.10;;;8.30;;
16766;SDS011;8501;49.926;8.404;2023-08-30T02:15:27;10.15;;;8.65;;
16766;SDS011;8501;49.926;8.404;2023-08-30T02:17:55;9.50;;;8.30;;
16766;SDS011;8501;49.926;8.404;2023-08-30T02:20:21;10.40;;;8.38;;
16766;SDS011;8501;49.926;8.404;2023-08-30T02:22:47;13.32;;;8.30;;
16766;SDS011;8501;49.926;8.404;2023-08-30T02:25:13;9.30;;;7.68;;
16766;SDS011;8501;49.926;8.404;2023-08-30T02:27:38;11.07;;;8.70;;
16766;SDS011;8501;49.926;8.404;2023-08-30T02:30:04;10.90;;;8.82;;
16766;SDS011;8501;49.926;8.404;2023-08-30T02:32:30;9.95;;;8.18;;
16766;SDS011;8501;49.926;8.404;2023-08-30T02:34:56;10.35;;;8.43;;
16766;SDS011;8501;49.926;8.404;2023-08-30T02:37:22;12.63;;;9.20;;
16766;SDS011;8501;49.926;8.404;2023-08-30T02:39:48;10.13;;;8.30;;
16766;SDS011;8501;49.926;8.404;2023-08-30T02:42:13;12.48;;;8.57;;
16766;SDS011;8501;49.926;8.404;2023-08-30T02:44:39;10.30;;;8.50;;
16766;SDS011;8501;49.926;8.404;2023-08-30T02:47:04;11.02;;;8.63;;
16766;SDS011;8501;49.926;8.404;2023-08-30T02:49:30;10.73;;;8.45;;
16766;SDS011;8501;49.926;8.404;2023-08-30T02:51:55;12.10;;;8.50;;
16766;SDS011;8501;49.926;8.404;2023-08-30T02:54:21;12.45;;;8.77;;
16766;SDS011;8501;49.926;8.404;2023-08-30T02:56:47;11.88;;;9.18;;
16766;SDS011;8501;49.926;8.404;2023-08-30T02:59:13;12.02;;;9.25;;
16766;SDS011;8501;49.926;8.404;2023-08-30T03:01:39;11.45;;;9.30;;
16766;SDS011;8501;49.926;8.404;2023-08-30T03:04:05;9.68;;;8.50;;
16766;SDS011;8501;49.926;8.404;2023-08-30T03:06:32;10.70;;;8.50;;
16766;SDS011;8501;49.926;8.404;2023-08-30T03:08:58;11.68;;;9.13;;
16766;SDS011;8501;49.926;8.404;2023-08-30T03:11:24;10.45;;;9.35;;
16766;SDS011;8501;49.926;8.404;2023-08-30T03:13:49;11.35;;;9.38;;
16766;SDS011;8501;49.926;8.404;2023-08-30T03:16:16;12.52;;;9.40;;
16766;SDS011;8501;49.926;8.404;2023-08-30T03:18:42;12.50;;;9.82;;
16766;SDS011;8501;49.926;8.404;2023-08-30T03:21:09;12.80;;;9.85;;
16766;SDS011;8501;49.926;8.404;2023-08-30T03:23:35;14.20;;;9.30;;
16766;SDS011;8501;49.926;8.404;2023-08-30T03:26:14;13.25;;;9.23;;
16766;SDS011;8501;49.926;8.404;2023-08-30T03:28:41;11.35;;;9.07;;
16766;SDS011;8501;49.926;8.404;2023-08-30T03:31:14;11.25;;;9.15;;
16766;SDS011;8501;49.926;8.404;2023-08-30T03:33:40;10.50;;;8.25;;
16766;SDS011;8501;49.926;8.404;2023-08-30T03:36:07;10.15;;;8.82;;
16766;SDS011;8501;49.926;8.404;2023-08-30T03:38:34;11.77;;;9.10;;
16766;SDS011;8501;49.926;8.404;2023-08-30T03:40:59;13.13;;;8.95;;
16766;SDS011;8501;49.926;8.404;2023-08-30T03:43:25;11.23;;;9.07;;
16766;SDS011;8501;49.926;8.404;2023-08-30T03:45:50;14.70;;;9.73;;
16766;SDS011;8501;49.926;8.404;2023-08-30T03:48:17;12.30;;;9.45;;
16766;SDS011;8501;49.926;8.404;2023-08-30T03:50:43;13.20;;;9.18;;
16766;SDS011;8501;49.926;8.404;2023-08-30T03:53:08;11.25;;;8.77;;
16766;SDS011;8501;49.926;8.404;2023-08-30T03:55:34;12.68;;;10.00;;
16766;SDS011;8501;49.926;8.404;2023-08-30T03:57:59;12.45;;;9.63;;
16766;SDS011;8501;49.926;8.404;2023-08-30T04:00:25;12.02;;;8.75;;
16766;SDS011;8501;49.926;8.404;2023-08-30T04:02:50;12.30;;;9.13;;
16766;SDS011;8501;49.926;8.404;2023-08-30T04:05:16;12.00;;;9.15;;
16766;SDS011;8501;49.926;8.404;2023-08-30T04:07:41;11.35;;;9.00;;
16766;SDS011;8501;49.926;8.404;2023-08-30T04:10:07;12.60;;;8.68;;
16766;SDS011;8501;49.926;8.404;2023-08-30T04:12:33;12.90;;;9.70;;
16766;SDS011;8501;49.926;8.404;2023-08-30T04:15:00;12.77;;;9.02;;
16766;SDS011;8501;49.926;8.404;2023-08-30T04:17:26;11.20;;;9.05;;
16766;SDS011;8501;49.926;8.404;2023-08-30T04:19:52;12.40;;;10.18;;
16766;SDS011;8501;49.926;8.404;2023-08-30T04:22:18;10.20;;;8.93;;
16766;SDS011;8501;49.926;8.404;2023-08-30T04:24:44;11.60;;;9.60;;
16766;SDS011;8501;49.926;8.404;2023-08-30T04:27:10;12.18;;;9.35;;
16766;SDS011;8501;49.926;8.404;2023-08-30T04:29:35;12.13;;;9.35;;
16766;SDS011;8501;49.926;8.404;2023-08-30T04:32:01;12.02;;;9.00;;
16766;SDS011;8501;49.926;8.404;2023-08-30T04:34:26;13.00;;;9.10;;
16766;SDS011;8501;49.926;8.404;2023-08-30T04:36:52;11.95;;;9.48;;
16766;SDS011;8501;49.926;8.404;2023-08-30T04:39:18;11.80;;;9.55;;
16766;SDS011;8501;49.926;8.404;2023-08-30T04:41:44;12.82;;;9.23;;
16766;SDS011;8501;49.926;8.404;2023-08-30T04:44:09;11.93;;;9.55;;
16766;SDS011;8501;49.926;8.404;2023-08-30T04:46:35;13.23;;;9.48;;
16766;SDS011;8501;49.926;8.404;2023-08-30T04:49:00;11.27;;;9.60;;
16766;SDS011;8501;49.926;8.404;2023-08-30T04:51:26;13.18;;;9.88;;
16766;SDS011;8501;49.926;8.404;2023-08-30T04:53:51;10.70;;;9.10;;
16766;SDS011;8501;49.926;8.404;2023-08-30T04:56:17;12.68;;;9.35;;
16766;SDS011;8501;49.926;8.404;2023-08-30T04:58:43;13.25;;;9.85;;
16766;SDS011;8501;49.926;8.404;2023-08-30T05:01:09;13.02;;;9.60;;
16766;SDS011;8501;49.926;8.404;2023-08-30T05:03:36;13.10;;;8.82;;
16766;SDS011;8501;49.926;8.404;2023-08-30T05:06:01;12.27;;;9.13;;
16766;SDS011;8501;49.926;8.404;2023-08-30T05:08:27;14.55;;;9.20;;
16766;SDS011;8501;49.926;8.404;2023-08-30T05:10:53;12.15;;;9.60;;
16766;SDS011;8501;49.926;8.404;2023-08-30T05:13:19;12.50;;;9.38;;
16766;SDS011;8501;49.926;8.404;2023-08-30T05:15:45;13.55;;;9.45;;
16766;SDS011;8501;49.926;8.404;2023-08-30T05:18:10;12.45;;;9.45;;
16766;SDS011;8501;49.926;8.404;2023-08-30T05:20:36;10.70;;;8.95;;
16766;SDS011;8501;49.926;8.404;2023-08-30T05:23:01;10.68;;;9.15;;
16766;SDS011;8501;49.926;8.404;2023-08-30T05:25:27;12.13;;;9.45;;
16766;SDS011;8501;49.926;8.404;2023-08-30T05:27:53;11.68;;;9.13;;
16766;SDS011;8501;49.926;8.404;2023-08-30T05:30:18;13.05;;;9.65;;
16766;SDS011;8501;49.926;8.404;2023-08-30T05:32:44;13.27;;;9.43;;
16766;SDS011;8501;49.926;8.404;2023-08-30T05:35:09;12.00;;;9.68;;
16766;SDS011;8501;49.926;8.404;2023-08-30T05:37:35;11.80;;;8.90;;
16766;SDS011;8501;49.926;8.404;2023-08-30T05:40:01;12.07;;;10.05;;
16766;SDS011;8501;49.926;8.404;2023-08-30T05:42:26;12.88;;;9.13;;
16766;SDS011;8501;49.926;8.404;2023-08-30T05:44:52;13.38;;;9.60;;
16766;SDS011;8501;49.926;8.404;2023-08-30T05:47:18;15.13;;;9.73;;
16766;SDS011;8501;49.926;8.404;2023-08-30T05:49:45;11.55;;;9.25;;
16766;SDS011;8501;49.926;8.404;2023-08-30T05:52:10;12.55;;;9.40;;
16766;SDS011;8501;49.926;8.404;2023-08-30T05:54:36;11.50;;;9.30;;
16766;SDS011;8501;49.926;8.404;2023-08-30T05:57:02;13.65;;;9.82;;
16766;SDS011;8501;49.926;8.404;2023-08-30T05:59:28;12.48;;;9.43;;
16766;SDS011;8501;49.926;8.404;2023-08-30T06:01:53;11.02;;;9.40;;
16766;SDS011;8501;49.926;8.404;2023-08-30T06:04:19;11.60;;;9.65;;
16766;SDS011;8501;49.926;8.404;2023-08-30T06:06:45;12.27;;;9.23;;
16766;SDS011;8501;49.926;8.404;2023-08-30T06:09:10;13.48;;;10.07;;
16766;SDS011;8501;49.926;8.404;2023-08-30T06:11:38;14.93;;;9.50;;
16766;SDS011;8501;49.926;8.404;2023-08-30T06:14:04;11.20;;;9.43;;
16766;SDS011;8501;49.926;8.404;2023-08-30T06:16:30;11.95;;;9.30;;
16766;SDS011;8501;49.926;8.404;2023-08-30T06:18:56;13.18;;;10.45;;
16766;SDS011;8501;49.926;8.404;2023-08-30T06:21:24;12.35;;;9.75;;
16766;SDS011;8501;49.926;8.404;2023-08-30T06:23:50;11.55;;;9.52;;
16766;SDS011;8501;49.926;8.404;2023-08-30T06:26:15;12.38;;;9.98;;
16766;SDS011;8501;49.926;8.404;2023-08-30T06:28:41;11.60;;;9.75;;
16766;SDS011;8501;49.926;8.404;2023-08-30T06:31:07;13.45;;;9.82;;
16766;SDS011;8501;49.926;8.404;2023-08-30T06:33:33;12.63;;;9.65;;
16766;SDS011;8501;49.926;8.404;2023-08-30T06:35:59;13.07;;;10.07;;
16766;SDS011;8501;49.926;8.404;2023-08-30T06:38:25;12.55;;;10.27;;
16766;SDS011;8501;49.926;8.404;2023-08-30T06:40:51;13.02;;;10.32;;
16766;SDS011;8501;49.926;8.404;2023-08-30T06:43:16;13.77;;;10.45;;
16766;SDS011;8501;49.926;8.404;2023-08-30T06:45:43;13.90;;;10.50;;
16766;SDS011;8501;49.926;8.404;2023-08-30T06:48:09;12.43;;;10.40;;
16766;SDS011;8501;49.926;8.404;2023-08-30T06:50:35;12.32;;;10.73;;
16766;SDS011;8501;49.926;8.404;2023-08-30T06:53:01;14.07;;;11.02;;
16766;SDS011;8501;49.926;8.404;2023-08-30T06:55:28;15.27;;;10.98;;
16766;SDS011;8501;49.926;8.404;2023-08-30T06:57:53;15.48;;;11.60;;
16766;SDS011;8501;49.926;8.404;2023-08-30T07:00:19;18.13;;;12.00;;
16766;SDS011;8501;49.926;8.404;2023-08-30T07:02:45;14.27;;;11.02;;
16766;SDS011;8501;49.926;8.404;2023-08-30T07:05:14;14.00;;;10.60;;
16766;SDS011;8501;49.926;8.404;2023-08-30T07:07:39;13.77;;;11.57;;
16766;SDS011;8501;49.926;8.404;2023-08-30T07:10:05;15.52;;;11.25;;
16766;SDS011;8501;49.926;8.404;2023-08-30T07:12:31;15.45;;;11.88;;
16766;SDS011;8501;49.926;8.404;2023-08-30T07:14:57;17.90;;;12.93;;
16766;SDS011;8501;49.926;8.404;2023-08-30T07:17:23;17.55;;;13.05;;
16766;SDS011;8501;49.926;8.404;2023-08-30T07:19:48;16.63;;;13.18;;
16766;SDS011;8501;49.926;8.404;2023-08-30T07:22:14;16.85;;;12.50;;
16766;SDS011;8501;49.926;8.404;2023-08-30T07:24:44;19.55;;;12.65;;
16766;SDS011;8501;49.926;8.404;2023-08-30T07:27:10;15.77;;;11.82;;
16766;SDS011;8501;49.926;8.404;2023-08-30T07:29:37;16.75;;;12.63;;
16766;SDS011;8501;49.926;8.404;2023-08-30T07:32:05;15.63;;;12.15;;
16766;SDS011;8501;49.926;8.404;2023-08-30T07:34:30;15.82;;;12.15;;
16766;SDS011;8501;49.926;8.404;2023-08-30T07:36:56;14.52;;;11.80;;
16766;SDS011;8501;49.926;8.404;2023-08-30T07:39:21;16.98;;;12.45;;
16766;SDS011;8501;49.926;8.404;2023-08-30T07:41:47;15.55;;;11.98;;
16766;SDS011;8501;49.926;8.404;2023-08-30T07:44:13;15.88;;;11.00;;
16766;SDS011;8501;49.926;8.404;2023-08-30T07:46:38;15.48;;;11.13;;
16766;SDS011;8501;49.926;8.404;2023-08-30T07:49:04;15.70;;;11.25;;
16766;SDS011;8501;49.926;8.404;2023-08-30T07:51:29;15.30;;;11.63;;
16766;SDS011;8501;49.926;8.404;2023-08-30T07:53:55;14.63;;;11.02;;
16766;SDS011;8501;49.926;8.404;2023-08-30T07:56:21;15.13;;;11.55;;
16766;SDS011;8501;49.926;8.404;2023-08-30T07:58:46;14.57;;;11.82;;
16766;SDS011;8501;49.926;8.404;2023-08-30T08:01:12;14.60;;;11.23;;
16766;SDS011;8501;49.926;8.404;2023-08-30T08:03:38;12.60;;;10.65;;
16766;SDS011;8501;49.926;8.404;2023-08-30T08:06:03;13.80;;;11.55;;
16766;SDS011;8501;49.926;8.404;2023-08-30T08:08:29;13.52;;;10.68;;
16766;SDS011;8501;49.926;8.404;2023-08-30T08:10:54;14.73;;;10.88;;
16766;SDS011;8501;49.926;8.404;2023-08-30T08:13:20;14.88;;;11.13;;
16766;SDS011;8501;49.926;8.404;2023-08-30T08:15:45;14.80;;;11.52;;
16766;SDS011;8501;49.926;8.404;2023-08-30T08:18:11;13.68;;;11.15;;
16766;SDS011;8501;49.926;8.404;2023-08-30T08:20:36;14.88;;;11.75;;
16766;SDS011;8501;49.926;8.404;2023-08-30T08:23:04;14.75;;;11.15;;
16766;SDS011;8501;49.926;8.404;2023-08-30T08:25:29;13.52;;;10.90;;
16766;SDS011;8501;49.926;8.404;2023-08-30T08:27:55;14.70;;;11.07;;
16766;SDS011;8501;49.926;8.404;2023-08-30T08:30:20;13.43;;;10.90;;
16766;SDS011;8501;49.926;8.404;2023-08-30T08:32:46;12.65;;;10.73;;
16766;SDS011;8501;49.926;8.404;2023-08-30T08:35:15;15.40;;;11.30;;
16766;SDS011;8501;49.926;8.404;2023-08-30T08:37:40;14.10;;;11.68;;
16766;SDS011;8501;49.926;8.404;2023-08-30T08:40:06;14.82;;;11.05;;
16766;SDS011;8501;49.926;8.404;2023-08-30T08:42:35;14.07;;;10.52;;
16766;SDS011;8501;49.926;8.404;2023-08-30T08:45:02;14.27;;;10.30;;
16766;SDS011;8501;49.926;8.404;2023-08-30T08:47:29;12.93;;;10.35;;
16766;SDS011;8501;49.926;8.404;2023-08-30T08:49:56;14.15;;;10.30;;
16766;SDS011;8501;49.926;8.404;2023-08-30T08:52:23;13.68;;;10.50;;
16766;SDS011;8501;49.926;8.404;2023-08-30T08:54:49;15.20;;;10.63;;
16766;SDS011;8501;49.926;8.404;2023-08-30T08:57:15;12.40;;;10.23;;
16766;SDS011;8501;49.926;8.404;2023-08-30T08:59:41;13.43;;;10.65;;
16766;SDS011;8501;49.926;8.404;2023-08-30T09:02:07;13.48;;;10.80;;
16766;SDS011;8501;49.926;8.404;2023-08-30T09:04:35;13.65;;;11.00;;
16766;SDS011;8501;49.926;8.404;2023-08-30T09:07:01;17.48;;;11.80;;
16766;SDS011;8501;49.926;8.404;2023-08-30T09:09:27;14.57;;;11.68;;
16766;SDS011;8501;49.926;8.404;2023-08-30T09:11:53;13.38;;;10.25;;
16766;SDS011;8501;49.926;8.404;2023-08-30T09:14:18;13.80;;;10.90;;
16766;SDS011;8501;49.926;8.404;2023-08-30T09:17:00;14.65;;;12.20;;
16766;SDS011;8501;49.926;8.404;2023-08-30T09:19:26;13.35;;;10.85;;
16766;SDS011;8501;49.926;8.404;2023-08-30T09:21:53;14.60;;;11.07;;
16766;SDS011;8501;49.926;8.404;2023-08-30T09:24:19;15.77;;;11.93;;
16766;SDS011;8501;49.926;8.404;2023-08-30T09:26:51;14.27;;;11.68;;
16766;SDS011;8501;49.926;8.404;2023-08-30T09:29:20;14.10;;;11.45;;
16766;SDS011;8501;49.926;8.404;2023-08-30T09:31:50;16.08;;;11.93;;
16766;SDS011;8501;49.926;8.404;2023-08-30T09:34:17;16.80;;;11.63;;
16766;SDS011;8501;49.926;8.404;2023-08-30T09:36:46;14.80;;;11.60;;
16766;SDS011;8501;49.926;8.404;2023-08-30T09:39:14;15.65;;;12.63;;
16766;SDS011;8501;49.926;8.404;2023-08-30T09:41:43;13.30;;;11.63;;
16766;SDS011;8501;49.926;8.404;2023-08-30T09:44:13;15.20;;;11.90;;
16766;SDS011;8501;49.926;8.404;2023-08-30T09:46:50;13.63;;;11.70;;
16766;SDS011;8501;49.926;8.404;2023-08-30T09:49:17;12.93;;;11.20;;
16766;SDS011;8501;49.926;8.404;2023-08-30T09:51:44;14.23;;;11.55;;
16766;SDS011;8501;49.926;8.404;2023-08-30T09:54:16;12.68;;;10.45;;
16766;SDS011;8501;49.926;8.404;2023-08-30T09:56:51;12.45;;;10.05;;
16766;SDS011;8501;49.926;8.404;2023-08-30T09:59:22;14.02;;;9.88;;
16766;SDS011;8501;49.926;8.404;2023-08-30T10:01:48;13.23;;;10.07;;
16766;SDS011;8501;49.926;8.404;2023-08-30T10:04:15;12.20;;;10.68;;
16766;SDS011;8501;49.926;8.404;2023-08-30T10:06:42;12.60;;;10.25;;
16766;SDS011;8501;49.926;8.404;2023-08-30T10:09:08;14.15;;;10.35;;
16766;SDS011;8501;49.926;8.404;2023-08-30T10:11:34;12.40;;;9.90;;
16766;SDS011;8501;49.926;8.404;2023-08-30T10:14:01;10.48;;;8.98;;
16766;SDS011;8501;49.926;8.404;2023-08-30T10:16:29;12.25;;;10.35;;
16766;SDS011;8501;49.926;8.404;2023-08-30T10:19:17;13.27;;;11.00;;
16766;SDS011;8501;49.926;8.404;2023-08-30T10:22:02;13.65;;;10.02;;
16766;SDS011;8501;49.926;8.404;2023-08-30T10:24:29;11.00;;;9.40;;
16766;SDS011;8501;49.926;8.404;2023-08-30T10:26:58;9.80;;;8.18;;
16766;SDS011;8501;49.926;8.404;2023-08-30T10:29:27;11.18;;;8.98;;
16766;SDS011;8501;49.926;8.404;2023-08-30T10:31:53;9.02;;;7.68;;
16766;SDS011;8501;49.926;8.404;2023-08-30T10:34:19;10.88;;;7.68;;
16766;SDS011;8501;49.926;8.404;2023-08-30T10:36:55;10.57;;;7.70;;
16766;SDS011;8501;49.926;8.404;2023-08-30T10:39:41;8.57;;;6.75;;
16766;SDS011;8501;49.926;8.404;2023-08-30T10:42:10;8.05;;;6.68;;
16766;SDS011;8501;49.926;8.404;2023-08-30T10:44:51;8.10;;;6.68;;
16766;SDS011;8501;49.926;8.404;2023-08-30T10:47:18;9.05;;;7.00;;
16766;SDS011;8501;49.926;8.404;2023-08-30T10:49:46;7.95;;;6.78;;
16766;SDS011;8501;49.926;8.404;2023-08-30T10:52:13;8.35;;;6.00;;
16766;SDS011;8501;49.926;8.404;2023-08-30T10:54:38;6.22;;;5.63;;
16766;SDS011;8501;49.926;8.404;2023-08-30T10:57:04;8.07;;;5.85;;
16766;SDS011;8501;49.926;8.404;2023-08-30T10:59:30;6.63;;;5.93;;
16766;SDS011;8501;49.926;8.404;2023-08-30T11:01:55;7.07;;;5.93;;
16766;SDS011;8501;49.926;8.404;2023-08-30T11:04:25;7.10;;;6.10;;
16766;SDS011;8501;49.926;8.404;2023-08-30T11:06:51;6.90;;;5.95;;
16766;SDS011;8501;49.926;8.404;2023-08-30T11:09:18;7.20;;;6.05;;
16766;SDS011;8501;49.926;8.404;2023-08-30T11:11:47;6.68;;;5.97;;
16766;SDS011;8501;49.926;8.404;2023-08-30T11:14:13;6.78;;;5.53;;
16766;SDS011;8501;49.926;8.404;2023-08-30T11:16:40;6.57;;;5.45;;
16766;SDS011;8501;49.926;8.404;2023-08-30T11:19:06;6.95;;;5.50;;
16766;SDS011;8501;49.926;8.404;2023-08-30T11:21:34;6.43;;;5.78;;
16766;SDS011;8501;49.926;8.404;2023-08-30T11:24:02;5.85;;;5.22;;
16766;SDS011;8501;49.926;8.404;2023-08-30T11:26:28;7.10;;;5.82;;
16766;SDS011;8501;49.926;8.404;2023-08-30T11:28:54;9.23;;;5.65;;
16766;SDS011;8501;49.926;8.404;2023-08-30T11:31:21;6.82;;;5.55;;
16766;SDS011;8501;49.926;8.404;2023-08-30T11:33:53;6.60;;;5.30;;
16766;SDS011;8501;49.926;8.404;2023-08-30T11:36:23;7.18;;;5.50;;
16766;SDS011;8501;49.926;8.404;2023-08-30T11:38:57;6.07;;;5.35;;
16766;SDS011;8501;49.926;8.404;2023-08-30T11:41:23;7.38;;;6.15;;
16766;SDS011;8501;49.926;8.404;2023-08-30T11:43:50;9.25;;;6.10;;
16766;SDS011;8501;49.926;8.404;2023-08-30T11:46:16;7.10;;;5.75;;
16766;SDS011;8501;49.926;8.404;2023-08-30T11:48:42;8.20;;;5.35;;
16766;SDS011;8501;49.926;8.404;2023-08-30T11:51:09;6.57;;;5.40;;
16766;SDS011;8501;49.926;8.404;2023-08-30T11:53:35;8.50;;;5.80;;
16766;SDS011;8501;49.926;8.404;2023-08-30T11:56:02;8.10;;;5.47;;
16766;SDS011;8501;49.926;8.404;2023-08-30T11:58:31;5.65;;;5.05;;
16766;SDS011;8501;49.926;8.404;2023-08-30T12:00:58;6.70;;;5.28;;
16766;SDS011;8501;49.926;8.404;2023-08-30T12:03:25;6.90;;;5.43;;
16766;SDS011;8501;49.926;8.404;2023-08-30T12:05:55;5.60;;;5.00;;
16766;SDS011;8501;49.926;8.404;2023-08-30T12:08:21;6.90;;;4.90;;
16766;SDS011;8501;49.926;8.404;2023-08-30T12:10:49;6.40;;;4.93;;
16766;SDS011;8501;49.926;8.404;2023-08-30T12:16:00;7.30;;;4.95;;
16766;SDS011;8501;49.926;8.404;2023-08-30T12:18:28;7.22;;;4.75;;
16766;SDS011;8501;49.926;8.404;2023-08-30T12:21:00;5.20;;;4.70;;
16766;SDS011;8501;49.926;8.404;2023-08-30T12:23:27;5.85;;;4.10;;
16766;SDS011;8501;49.926;8.404;2023-08-30T12:28:34;6.78;;;4.75;;
16766;SDS011;8501;49.926;8.404;2023-08-30T12:31:01;6.07;;;4.82;;
16766;SDS011;8501;49.926;8.404;2023-08-30T12:33:28;5.38;;;4.70;;
16766;SDS011;8501;49.926;8.404;2023-08-30T12:35:54;7.57;;;5.05;;
16766;SDS011;8501;49.926;8.404;2023-08-30T12:38:21;6.03;;;4.45;;
16766;SDS011;8501;49.926;8.404;2023-08-30T12:40:48;7.63;;;5.13;;
16766;SDS011;8501;49.926;8.404;2023-08-30T12:43:15;6.15;;;4.78;;
16766;SDS011;8501;49.926;8.404;2023-08-30T12:45:41;6.82;;;4.70;;
16766;SDS011;8501;49.926;8.404;2023-08-30T12:48:07;6.00;;;4.72;;
16766;SDS011;8501;49.926;8.404;2023-08-30T12:50:34;5.38;;;4.35;;
16766;SDS011;8501;49.926;8.404;2023-08-30T12:53:00;5.95;;;5.05;;
16766;SDS011;8501;49.926;8.404;2023-08-30T12:55:28;5.80;;;5.20;;
16766;SDS011;8501;49.926;8.404;2023-08-30T12:57:54;5.63;;;5.03;;
16766;SDS011;8501;49.926;8.404;2023-08-30T13:00:19;5.53;;;4.75;;
16766;SDS011;8501;49.926;8.404;2023-08-30T13:02:45;6.57;;;5.32;;
16766;SDS011;8501;49.926;8.404;2023-08-30T13:05:11;5.45;;;4.90;;
16766;SDS011;8501;49.926;8.404;2023-08-30T13:07:37;7.47;;;5.22;;
16766;SDS011;8501;49.926;8.404;2023-08-30T13:10:02;5.97;;;5.25;;
16766;SDS011;8501;49.926;8.404;2023-08-30T13:12:28;5.22;;;4.68;;
16766;SDS011;8501;49.926;8.404;2023-08-30T13:14:54;7.07;;;5.30;;
16766;SDS011;8501;49.926;8.404;2023-08-30T13:17:19;6.07;;;5.13;;
16766;SDS011;8501;49.926;8.404;2023-08-30T13:19:45;6.07;;;5.28;;
16766;SDS011;8501;49.926;8.404;2023-08-30T13:22:10;6.90;;;5.38;;
16766;SDS011;8501;49.926;8.404;2023-08-30T13:24:36;8.57;;;5.57;;
16766;SDS011;8501;49.926;8.404;2023-08-30T13:27:02;7.15;;;5.63;;
16766;SDS011;8501;49.926;8.404;2023-08-30T13:29:28;6.93;;;5.30;;
16766;SDS011;8501;49.926;8.404;2023-08-30T13:31:54;6.45;;;5.22;;
16766;SDS011;8501;49.926;8.404;2023-08-30T13:34:20;5.80;;;5.20;;
16766;SDS011;8501;49.926;8.404;2023-08-30T13:36:45;7.05;;;5.65;;
16766;SDS011;8501;49.926;8.404;2023-08-30T13:39:11;6.72;;;5.07;;
16766;SDS011;8501;49.926;8.404;2023-08-30T13:41:36;5.82;;;5.03;;
16766;SDS011;8501;49.926;8.404;2023-08-30T13:44:02;6.05;;;5.45;;
16766;SDS011;8501;49.926;8.404;2023-08-30T13:46:30;7.13;;;5.03;;
16766;SDS011;8501;49.926;8.404;2023-08-30T13:48:56;6.13;;;5.00;;
16766;SDS011;8501;49.926;8.404;2023-08-30T13:51:22;6.68;;;5.28;;
16766;SDS011;8501;49.926;8.404;2023-08-30T13:53:49;5.63;;;4.75;;
16766;SDS011;8501;49.926;8.404;2023-08-30T13:56:15;7.97;;;4.70;;
16766;SDS011;8501;49.926;8.404;2023-08-30T13:58:41;6.53;;;4.50;;
16766;SDS011;8501;49.926;8.404;2023-08-30T14:01:07;7.63;;;5.22;;
16766;SDS011;8501;49.926;8.404;2023-08-30T14:03:32;6.05;;;4.70;;
16766;SDS011;8501;49.926;8.404;2023-08-30T14:05:58;5.90;;;4.95;;
16766;SDS011;8501;49.926;8.404;2023-08-30T14:08:24;5.53;;;4.13;;
16766;SDS011;8501;49.926;8.404;2023-08-30T14:10:49;5.80;;;4.30;;
16766;SDS011;8501;49.926;8.404;2023-08-30T14:13:15;5.13;;;4.18;;
16766;SDS011;8501;49.926;8.404;2023-08-30T14:15:41;5.57;;;4.57;;
16766;SDS011;8501;49.926;8.404;2023-08-30T14:18:07;5.88;;;4.57;;
16766;SDS011;8501;49.926;8.404;2023-08-30T14:20:32;5.28;;;4.78;;
16766;SDS011;8501;49.926;8.404;2023-08-30T14:22:58;5.10;;;4.60;;
16766;SDS011;8501;49.926;8.404;2023-08-30T14:25:23;5.70;;;4.50;;
16766;SDS011;8501;49.926;8.404;2023-08-30T14:27:49;6.80;;;4.90;;
16766;SDS011;8501;49.926;8.404;2023-08-30T14:30:15;6.60;;;4.93;;
16766;SDS011;8501;49.926;8.404;2023-08-30T14:32:41;6.15;;;5.00;;
16766;SDS011;8501;49.926;8.404;2023-08-30T14:35:06;7.40;;;5.40;;
16766;SDS011;8501;49.926;8.404;2023-08-30T14:37:32;5.80;;;5.07;;
16766;SDS011;8501;49.926;8.404;2023-08-30T14:40:04;6.18;;;5.07;;
16766;SDS011;8501;49.926;8.404;2023-08-30T14:42:30;6.38;;;5.07;;
16766;SDS011;8501;49.926;8.404;2023-08-30T14:44:57;6.20;;;5.60;;
16766;SDS011;8501;49.926;8.404;2023-08-30T14:47:22;5.93;;;5.32;;
16766;SDS011;8501;49.926;8.404;2023-08-30T14:49:48;5.93;;;5.22;;
16766;SDS011;8501;49.926;8.404;2023-08-30T14:52:14;5.50;;;4.80;;
16766;SDS011;8501;49.926;8.404;2023-08-30T14:54:40;6.97;;;5.07;;
16766;SDS011;8501;49.926;8.404;2023-08-30T14:57:06;5.22;;;4.72;;